Appleton, Illinois
Current Conditions -  °F | °C
As of 5:55 AM on Saturday 25 Oct 2014 (Local Time) from KGBG Reporting Station
Moderate Fog Moderate Fog  
Wind Chill: 52°   Ceiling: 200
Heat Index: 52°   Visibility: 0mi
Dew Point: 52°   Wind: 3mph
Humidity: 99%   Direction: 290°WNW
Pressure: 29.97"   Gusts: NA
Location:  40.9602°N, 90.1517°W
Report Text: KGBG 251055Z AUTO 29003KT M1/4SM FG OVC002 11/11 A2997 RMK AO2 T01100109
Loading
Personal Weather Stations






























Interactive Weather Map
Tropical Storm Tracking
New forecast layout! Learn more

10-Day Weather Forecast

Advertisements
Track Severe Weather on mobile